Time;durP1;ratioP1;P1;durP2;ratioP2;P2;SDS_P1;SDS_P2;PMS_P1;PMS_P2;Temp;Humidity;BMP_temperature;BMP_pressure;BME280_temperature;BME280_humidity;BME280_pressure;Samples;Min_cycle;Max_cycle;Signal;HPM_P1;HPM_P2
2022/09/01 09:59:39;;;;;;;1.07;0.80;;;;;;;;;;5108309;27;20327;-70
2022/09/01 10:02:14;;;;;;;1.13;0.70;;;;;;;;;;5055041;28;20474;-72
2022/09/01 10:04:40;;;;;;;2.90;0.70;;;;;;;;;;5087721;28;20051;-73
2022/09/01 10:07:33;;;;;;;0.80;0.60;;;;;;;;;;5087717;28;20078;-70
2022/09/01 10:10:00;;;;;;;13.10;2.15;;;;;;;;;;5094257;28;20120;-71
2022/09/01 10:12:27;;;;;;;0.50;0.50;;;;;;;;;;5103606;28;20044;-72
2022/09/01 10:15:00;;;;;;;3.80;0.73;;;;;;;;;;5093360;28;20048;-71
2022/09/01 10:17:44;;;;;;;2.38;0.55;;;;;;;;;;5091814;28;20070;-66
2022/09/01 10:20:24;;;;;;;2.92;0.98;;;;;;;;;;5091797;28;20136;-71
2022/09/01 10:22:51;;;;;;;1.30;0.70;;;;;;;;;;5087307;28;20040;-69
2022/09/01 10:25:19;;;;;;;4.65;0.98;;;;;;;;;;5101528;28;20043;-67
2022/09/01 10:27:48;;;;;;;0.73;0.50;;;;;;;;;;5107293;28;20111;-68
2022/09/01 10:30:18;;;;;;;2.47;0.80;;;;;;;;;;5107768;28;20042;-67
2022/09/01 10:32:46;;;;;;;2.78;0.50;;;;;;;;;;5101394;28;20051;-66
2022/09/01 10:35:39;;;;;;;6.60;0.80;;;;;;;;;;5094274;28;20045;-65
2022/09/01 10:38:10;;;;;;;387.63;19.75;;;;;;;;;;5088705;28;20058;-70
2022/09/01 10:40:40;;;;;;;6.15;0.90;;;;;;;;;;5093082;28;20111;-69
2022/09/01 10:43:26;;;;;;;1.20;0.73;;;;;;;;;;5095634;28;20090;-69
2022/09/01 10:45:52;;;;;;;1.65;0.70;;;;;;;;;;5102705;28;20552;-69
2022/09/01 10:48:22;;;;;;;0.98;0.57;;;;;;;;;;5087167;28;20076;-69
2022/09/01 10:50:49;;;;;;;1.95;0.50;;;;;;;;;;5085985;28;20305;-69
2022/09/01 10:53:34;;;;;;;1.15;0.47;;;;;;;;;;5086386;28;20044;-69
2022/09/01 10:56:00;;;;;;;0.90;0.50;;;;;;;;;;5104524;28;20542;-69
2022/09/01 10:58:48;;;;;;;1.52;0.60;;;;;;;;;;5107510;28;20492;-63
2022/09/01 11:01:15;;;;;;;1.70;0.60;;;;;;;;;;5102533;28;20420;-67
2022/09/01 11:03:50;;;;;;;2.70;0.60;;;;;;;;;;5091142;28;20376;-67
2022/09/01 11:06:35;;;;;;;2.03;0.63;;;;;;;;;;5106532;28;20071;-66
2022/09/01 11:09:05;;;;;;;0.75;0.40;;;;;;;;;;5100262;28;20059;-67
2022/09/01 11:11:31;;;;;;;0.63;0.63;;;;;;;;;;5078308;28;20398;-67
2022/09/01 11:13:58;;;;;;;2.47;0.70;;;;;;;;;;5073478;28;20486;-67
2022/09/01 11:16:24;;;;;;;0.75;0.63;;;;;;;;;;5072442;28;20159;-66
2022/09/01 11:18:50;;;;;;;1.85;0.88;;;;;;;;;;5074126;28;20537;-67
2022/09/01 11:21:24;;;;;;;0.43;0.43;;;;;;;;;;5083616;28;20144;-66
2022/09/01 11:23:50;;;;;;;12.13;1.77;;;;;;;;;;5075709;28;20048;-65
2022/09/01 11:26:31;;;;;;;0.93;0.50;;;;;;;;;;5073001;28;20049;-67
2022/09/01 11:28:58;;;;;;;3.45;0.90;;;;;;;;;;5072014;28;20133;-67
2022/09/01 11:31:41;;;;;;;24.55;2.08;;;;;;;;;;5072478;28;20485;-67
2022/09/01 11:34:12;;;;;;;8.82;1.60;;;;;;;;;;5073254;28;20088;-67
2022/09/01 11:36:47;;;;;;;5.88;1.67;;;;;;;;;;5072579;28;20512;-68
2022/09/01 11:39:28;;;;;;;8.38;1.23;;;;;;;;;;5080602;28;20059;-68
2022/09/01 11:42:00;;;;;;;9.32;0.82;;;;;;;;;;5092310;28;20046;-66
2022/09/01 11:44:26;;;;;;;2.78;0.77;;;;;;;;;;5092695;28;20062;-68
2022/09/01 11:46:55;;;;;;;4.03;0.70;;;;;;;;;;5081866;28;20044;-68
2022/09/01 11:49:33;;;;;;;3.83;0.82;;;;;;;;;;5092221;28;20123;-65
2022/09/01 11:52:00;;;;;;;5.93;0.88;;;;;;;;;;5074281;28;20049;-67
2022/09/01 11:54:27;;;;;;;7.82;1.17;;;;;;;;;;5071516;28;20052;-67
2022/09/01 11:56:53;;;;;;;1.55;0.90;;;;;;;;;;5074076;28;20166;-66
2022/09/01 11:59:33;;;;;;;0.95;0.65;;;;;;;;;;5092900;28;20070;-67
2022/09/01 12:02:00;;;;;;;1.23;0.70;;;;;;;;;;5091917;28;20075;-67
2022/09/01 12:04:32;;;;;;;5.25;0.90;;;;;;;;;;5075911;28;20087;-67
2022/09/01 12:07:10;;;;;;;3.17;0.98;;;;;;;;;;5088057;28;20544;-67
2022/09/01 12:09:38;;;;;;;4.50;0.80;;;;;;;;;;5078647;28;20036;-67
2022/09/01 12:12:06;;;;;;;9.05;1.02;;;;;;;;;;5092618;28;20097;-67
2022/09/01 12:14:32;;;;;;;3.05;0.88;;;;;;;;;;5086250;28;20442;-67
2022/09/01 12:17:00;;;;;;;1.40;0.90;;;;;;;;;;5090768;28;20477;-67
2022/09/01 12:19:28;;;;;;;1.88;0.90;;;;;;;;;;5092289;28;20048;-67
2022/09/01 12:22:02;;;;;;;2.13;0.80;;;;;;;;;;5082227;28;20568;-67
2022/09/01 12:24:29;;;;;;;2.50;0.60;;;;;;;;;;5086418;28;20498;-67
2022/09/01 12:27:00;;;;;;;0.60;0.60;;;;;;;;;;5071551;28;20078;-67
2022/09/01 12:29:26;;;;;;;2.90;1.00;;;;;;;;;;5072158;28;20053;-67
2022/09/01 12:31:53;;;;;;;0.80;0.65;;;;;;;;;;5070642;28;20541;-67
2022/09/01 12:34:34;;;;;;;1.55;0.60;;;;;;;;;;5071669;28;20445;-67
2022/09/01 12:37:05;;;;;;;1.83;0.60;;;;;;;;;;5073564;28;20055;-67
2022/09/01 12:39:39;;;;;;;2.30;0.85;;;;;;;;;;5071169;28;20040;-67
2022/09/01 12:42:07;;;;;;;0.98;0.90;;;;;;;;;;5071767;28;20045;-67
2022/09/01 12:44:36;;;;;;;1.02;0.80;;;;;;;;;;5071634;28;20048;-67
2022/09/01 12:47:07;;;;;;;1.25;0.70;;;;;;;;;;5085940;28;20051;-67
2022/09/01 12:49:35;;;;;;;4.13;1.30;;;;;;;;;;5071505;28;20048;-67
2022/09/01 12:52:24;;;;;;;2.75;0.85;;;;;;;;;;5086837;28;20282;-67
2022/09/01 12:54:53;;;;;;;1.55;0.63;;;;;;;;;;5090305;28;20044;-67
2022/09/01 12:57:27;;;;;;;1.55;0.70;;;;;;;;;;5088111;28;20052;-69
2022/09/01 13:00:07;;;;;;;2.40;0.80;;;;;;;;;;5071093;28;20040;-68
2022/09/01 13:02:35;;;;;;;1.23;0.60;;;;;;;;;;5079507;28;20051;-70
2022/09/01 13:05:20;;;;;;;3.08;0.80;;;;;;;;;;5074344;28;20080;-70
2022/09/01 13:07:46;;;;;;;0.52;0.52;;;;;;;;;;5069306;28;20045;-68
2022/09/01 13:10:13;;;;;;;2.30;0.93;;;;;;;;;;5079142;28;20047;-68
2022/09/01 13:12:41;;;;;;;1.10;0.73;;;;;;;;;;5075996;28;20044;-68
2022/09/01 13:15:07;;;;;;;1.85;0.70;;;;;;;;;;5070731;28;20086;-68
2022/09/01 13:17:33;;;;;;;2.55;0.85;;;;;;;;;;5071148;28;20045;-72
2022/09/01 13:19:59;;;;;;;1.05;0.60;;;;;;;;;;5070371;28;20481;-68
2022/09/01 13:22:26;;;;;;;1.20;0.73;;;;;;;;;;5069861;28;20051;-68
2022/09/01 13:24:52;;;;;;;1.13;0.80;;;;;;;;;;5069058;28;20052;-68
2022/09/01 13:27:18;;;;;;;1.98;0.82;;;;;;;;;;5069563;28;20045;-68
2022/09/01 13:29:45;;;;;;;1.42;1.00;;;;;;;;;;5073042;28;20492;-68
2022/09/01 13:32:11;;;;;;;2.33;0.95;;;;;;;;;;5079469;28;20044;-68
2022/09/01 13:34:38;;;;;;;1.48;0.80;;;;;;;;;;5070805;28;20119;-68
2022/09/01 13:37:04;;;;;;;0.63;0.50;;;;;;;;;;5070321;28;20040;-68
2022/09/01 13:39:31;;;;;;;0.60;0.60;;;;;;;;;;5069459;28;20051;-68
2022/09/01 13:41:57;;;;;;;1.45;0.70;;;;;;;;;;5070110;28;20133;-68
2022/09/01 13:44:23;;;;;;;1.25;0.60;;;;;;;;;;5070660;28;20051;-68
2022/09/01 13:46:49;;;;;;;3.50;0.60;;;;;;;;;;5073355;28;20130;-68
2022/09/01 13:49:15;;;;;;;1.20;0.60;;;;;;;;;;5078733;28;20052;-68
2022/09/01 13:51:41;;;;;;;2.63;0.70;;;;;;;;;;5083601;28;20105;-67
2022/09/01 13:54:08;;;;;;;0.60;0.60;;;;;;;;;;5068417;28;20952;-67
2022/09/01 13:56:34;;;;;;;0.70;0.70;;;;;;;;;;5070197;28;20073;-67
2022/09/01 13:59:00;;;;;;;1.00;0.63;;;;;;;;;;5070153;28;20052;-67
2022/09/01 14:01:28;;;;;;;1.00;0.70;;;;;;;;;;5069272;28;20048;-67
2022/09/01 14:03:54;;;;;;;0.60;0.60;;;;;;;;;;5069347;28;20404;-67
2022/09/01 14:06:20;;;;;;;0.55;0.55;;;;;;;;;;5070504;28;20048;-67
2022/09/01 14:08:46;;;;;;;1.38;0.80;;;;;;;;;;5069074;28;20033;-68
2022/09/01 14:11:16;;;;;;;0.65;0.65;;;;;;;;;;5070210;28;20535;-67
2022/09/01 14:13:44;;;;;;;2.35;0.80;;;;;;;;;;5070197;28;20045;-67
2022/09/01 14:16:11;;;;;;;0.93;0.85;;;;;;;;;;5073690;28;20052;-67
2022/09/01 14:18:38;;;;;;;0.52;0.50;;;;;;;;;;5069835;28;20044;-67
2022/09/01 14:21:04;;;;;;;0.75;0.63;;;;;;;;;;5079804;28;20172;-68
2022/09/01 14:23:30;;;;;;;7.13;1.15;;;;;;;;;;5068476;28;20111;-66
2022/09/01 14:25:57;;;;;;;3.65;1.00;;;;;;;;;;5073859;28;20396;-65
2022/09/01 14:28:23;;;;;;;4.20;0.80;;;;;;;;;;5073582;28;20051;-65
2022/09/01 14:30:50;;;;;;;0.60;0.60;;;;;;;;;;5073160;28;20051;-66
2022/09/01 14:33:17;;;;;;;3.78;0.75;;;;;;;;;;5079741;28;20106;-69
2022/09/01 14:35:44;;;;;;;4.07;0.82;;;;;;;;;;5074957;28;20044;-68
2022/09/01 14:38:12;;;;;;;2.28;1.05;;;;;;;;;;5068743;28;20415;-68
2022/09/01 14:40:38;;;;;;;2.50;0.75;;;;;;;;;;5069947;28;20052;-67
2022/09/01 14:43:06;;;;;;;6.90;1.00;;;;;;;;;;5068359;28;20187;-68
2022/09/01 14:45:32;;;;;;;2.00;0.60;;;;;;;;;;5072058;28;20040;-68
2022/09/01 14:48:00;;;;;;;3.28;0.90;;;;;;;;;;5073085;28;20058;-68
2022/09/01 14:50:27;;;;;;;3.90;0.90;;;;;;;;;;5092306;28;20124;-61
2022/09/01 14:52:55;;;;;;;12.25;0.98;;;;;;;;;;5080329;28;20115;-66
2022/09/01 14:55:22;;;;;;;13.88;1.40;;;;;;;;;;5073492;28;20040;-67
2022/09/01 14:57:48;;;;;;;4.80;0.82;;;;;;;;;;5073347;28;20573;-67
2022/09/01 15:00:15;;;;;;;4.90;0.98;;;;;;;;;;5072989;28;20056;-68
2022/09/01 15:02:43;;;;;;;5.13;1.10;;;;;;;;;;5072571;28;20129;-68
2022/09/01 15:05:10;;;;;;;4.38;0.88;;;;;;;;;;5072869;28;20036;-67
2022/09/01 15:07:36;;;;;;;6.20;1.00;;;;;;;;;;5072410;28;20508;-66
2022/09/01 15:10:04;;;;;;;26.63;3.42;;;;;;;;;;5072800;28;20078;-66
2022/09/01 15:12:30;;;;;;;13.48;2.63;;;;;;;;;;5073112;28;20492;-68
2022/09/01 15:14:59;;;;;;;17.55;1.70;;;;;;;;;;5073033;28;20098;-66
2022/09/01 15:17:26;;;;;;;7.25;1.40;;;;;;;;;;5078962;28;20115;-66
2022/09/01 15:19:52;;;;;;;7.60;1.50;;;;;;;;;;5073029;28;20706;-66
2022/09/01 15:22:18;;;;;;;16.60;1.77;;;;;;;;;;5085227;28;20040;-67
2022/09/01 15:24:44;;;;;;;5.78;1.55;;;;;;;;;;5072651;28;20072;-67
2022/09/01 15:27:11;;;;;;;15.40;1.50;;;;;;;;;;5072455;28;20044;-67
2022/09/01 15:29:43;;;;;;;12.80;1.65;;;;;;;;;;5072248;28;20571;-66
2022/09/01 15:32:10;;;;;;;6.15;1.20;;;;;;;;;;5089884;28;20125;-66
2022/09/01 15:34:36;;;;;;;5.30;1.10;;;;;;;;;;5092860;28;20475;-69
2022/09/01 15:37:02;;;;;;;7.47;1.00;;;;;;;;;;5091898;28;20039;-68
2022/09/01 15:39:29;;;;;;;10.80;0.93;;;;;;;;;;5086375;28;20058;-67
2022/09/01 15:41:55;;;;;;;5.85;1.00;;;;;;;;;;5072370;28;20052;-68
2022/09/01 15:44:21;;;;;;;7.70;1.80;;;;;;;;;;5072463;28;20052;-68
2022/09/01 15:46:49;;;;;;;12.75;1.15;;;;;;;;;;5070948;28;20052;-66
2022/09/01 15:49:16;;;;;;;8.43;1.55;;;;;;;;;;5077582;28;20517;-70
2022/09/01 15:51:44;;;;;;;6.47;1.45;;;;;;;;;;5080073;28;20477;-67
2022/09/01 15:54:12;;;;;;;7.50;1.30;;;;;;;;;;5107151;28;20048;-67
2022/09/01 15:56:38;;;;;;;4.65;0.88;;;;;;;;;;5076345;28;20052;-67
2022/09/01 15:59:05;;;;;;;5.60;1.10;;;;;;;;;;5071600;28;20090;-67
2022/09/01 16:01:34;;;;;;;5.53;1.20;;;;;;;;;;5084911;28;20417;-67
2022/09/01 16:04:00;;;;;;;10.90;1.83;;;;;;;;;;5072036;28;20496;-67
2022/09/01 16:06:26;;;;;;;4.72;1.23;;;;;;;;;;5071523;28;20044;-67
2022/09/01 16:08:53;;;;;;;8.30;0.90;;;;;;;;;;5071244;28;20115;-64
2022/09/01 16:11:22;;;;;;;4.45;1.15;;;;;;;;;;5071705;28;20497;-65
2022/09/01 16:13:49;;;;;;;7.90;1.17;;;;;;;;;;5074561;28;20063;-65
2022/09/01 16:16:29;;;;;;;12.13;2.17;;;;;;;;;;5081795;28;20071;-65
2022/09/01 16:19:02;;;;;;;2.17;0.90;;;;;;;;;;5071990;28;20516;-65
2022/09/01 16:21:29;;;;;;;2.42;0.80;;;;;;;;;;5071126;28;20040;-65
2022/09/01 16:23:55;;;;;;;3.78;1.13;;;;;;;;;;5069760;28;20377;-65
2022/09/01 16:26:22;;;;;;;3.58;0.95;;;;;;;;;;5072128;28;20059;-65
2022/09/01 16:28:56;;;;;;;3.15;1.15;;;;;;;;;;5086790;28;20058;-65
2022/09/01 16:31:25;;;;;;;0.93;0.60;;;;;;;;;;5085472;28;20540;-66
2022/09/01 16:33:55;;;;;;;7.13;1.02;;;;;;;;;;5081263;28;20067;-65
2022/09/01 16:36:27;;;;;;;4.07;0.88;;;;;;;;;;5077981;28;20117;-65
2022/09/01 16:38:58;;;;;;;3.67;1.15;;;;;;;;;;5086913;28;20047;-66
2022/09/01 16:41:27;;;;;;;5.40;0.90;;;;;;;;;;5082350;28;20135;-70
2022/09/01 16:44:03;;;;;;;3.17;0.68;;;;;;;;;;5087112;28;20040;-66
2022/09/01 16:46:45;;;;;;;1.92;1.05;;;;;;;;;;5087921;28;20180;-66
2022/09/01 16:49:13;;;;;;;2.40;0.88;;;;;;;;;;5087650;28;20079;-65
2022/09/01 16:52:05;;;;;;;3.58;0.80;;;;;;;;;;5086934;28;20172;-66
2022/09/01 16:54:31;;;;;;;6.45;0.95;;;;;;;;;;5084129;28;20055;-66
2022/09/01 16:56:58;;;;;;;1.20;0.77;;;;;;;;;;5071632;28;20041;-65
2022/09/01 16:59:36;;;;;;;2.05;1.10;;;;;;;;;;5068705;28;20178;-65
2022/09/01 17:02:21;;;;;;;3.63;0.70;;;;;;;;;;5068160;28;20371;-65
2022/09/01 17:04:48;;;;;;;2.22;0.70;;;;;;;;;;5069430;28;20045;-65
2022/09/01 17:07:14;;;;;;;2.53;1.10;;;;;;;;;;5068192;28;20080;-65
2022/09/01 17:09:45;;;;;;;4.22;1.00;;;;;;;;;;5069273;28;20036;-65
2022/09/01 17:12:27;;;;;;;2.03;0.82;;;;;;;;;;5068850;28;20083;-64
2022/09/01 17:15:14;;;;;;;4.22;0.70;;;;;;;;;;5072109;28;20071;-66
2022/09/01 17:17:46;;;;;;;1.08;0.80;;;;;;;;;;5068362;28;20036;-66
2022/09/01 17:20:13;;;;;;;1.00;0.90;;;;;;;;;;5068003;28;20123;-65
2022/09/01 17:22:44;;;;;;;1.90;0.70;;;;;;;;;;5067253;28;20047;-66
2022/09/01 17:25:14;;;;;;;3.05;0.90;;;;;;;;;;5068898;28;20444;-64
2022/09/01 17:27:59;;;;;;;8.88;0.93;;;;;;;;;;5069143;28;20040;-66
2022/09/01 17:30:30;;;;;;;3.00;0.70;;;;;;;;;;5067851;28;20048;-66
2022/09/01 17:32:59;;;;;;;2.65;0.80;;;;;;;;;;5069127;28;20090;-66
2022/09/01 17:35:36;;;;;;;7.07;1.45;;;;;;;;;;5068362;28;20047;-65
2022/09/01 17:38:03;;;;;;;;;;;;;;;;;;5068955;28;20445;-65
2022/09/01 17:40:45;;;;;;;2.53;0.55;;;;;;;;;;5068233;28;19920;-65
2022/09/01 17:43:11;;;;;;;1.83;0.75;;;;;;;;;;5075859;28;20059;-63
2022/09/01 17:45:37;;;;;;;1.20;0.75;;;;;;;;;;5068875;28;20062;-65
2022/09/01 17:48:04;;;;;;;3.70;1.17;;;;;;;;;;5069932;28;20653;-65
2022/09/01 17:50:36;;;;;;;1.33;0.80;;;;;;;;;;5068346;28;20044;-66
2022/09/01 17:53:07;;;;;;;2.20;0.90;;;;;;;;;;5067632;28;20040;-65
2022/09/01 17:56:09;;;;;;;0.80;0.65;;;;;;;;;;5085337;28;20149;-65
2022/09/01 17:58:35;;;;;;;1.65;0.80;;;;;;;;;;5022451;28;20053;-67
2022/09/01 18:01:08;;;;;;;3.30;0.95;;;;;;;;;;5072609;28;20446;-65
2022/09/01 18:03:43;;;;;;;1.30;0.75;;;;;;;;;;5067690;28;20048;-65
2022/09/01 18:06:09;;;;;;;1.75;0.80;;;;;;;;;;5070368;28;20080;-65
2022/09/01 18:08:40;;;;;;;0.95;0.70;;;;;;;;;;5070369;28;20051;-65
2022/09/01 18:11:10;;;;;;;2.45;0.82;;;;;;;;;;5072353;28;20044;-65
2022/09/01 18:13:39;;;;;;;1.02;0.80;;;;;;;;;;5079744;28;20106;-66
2022/09/01 18:16:09;;;;;;;1.85;0.65;;;;;;;;;;5081880;28;20120;-66
2022/09/01 18:18:37;;;;;;;2.10;0.70;;;;;;;;;;5069156;28;20553;-65
2022/09/01 18:21:05;;;;;;;2.50;0.50;;;;;;;;;;5074476;28;20374;-66
2022/09/01 18:23:35;;;;;;;0.40;0.40;;;;;;;;;;5073001;28;20041;-65
2022/09/01 18:26:19;;;;;;;2.17;0.80;;;;;;;;;;5073432;28;20504;-65
2022/09/01 18:28:45;;;;;;;1.40;0.80;;;;;;;;;;5074018;28;20481;-66
2022/09/01 18:31:23;;;;;;;2.03;1.08;;;;;;;;;;5073300;28;20105;-65
2022/09/01 18:33:53;;;;;;;0.77;0.60;;;;;;;;;;5073794;28;20037;-65
2022/09/01 18:36:30;;;;;;;0.70;0.70;;;;;;;;;;5079381;28;20052;-66
2022/09/01 18:39:16;;;;;;;0.85;0.60;;;;;;;;;;5086756;28;20079;-66
2022/09/01 18:41:48;;;;;;;0.88;0.80;;;;;;;;;;5081572;28;20511;-64
2022/09/01 18:44:20;;;;;;;1.13;0.80;;;;;;;;;;5085964;28;20120;-66
2022/09/01 18:46:55;;;;;;;1.88;0.50;;;;;;;;;;5087150;28;20051;-66
2022/09/01 18:49:40;;;;;;;0.88;0.60;;;;;;;;;;5084965;28;20082;-66
2022/09/01 18:52:15;;;;;;;0.88;0.60;;;;;;;;;;5089498;28;20385;-67
2022/09/01 18:54:47;;;;;;;3.40;0.60;;;;;;;;;;5086548;28;20469;-67
2022/09/01 18:57:17;;;;;;;0.70;0.70;;;;;;;;;;5087638;28;20106;-66
2022/09/01 19:00:23;;;;;;;0.63;0.60;;;;;;;;;;5091414;28;20043;-66
2022/09/01 19:03:07;;;;;;;0.50;0.50;;;;;;;;;;5029418;28;20065;-65
2022/09/01 19:05:52;;;;;;;1.30;0.60;;;;;;;;;;5029425;28;20505;-66
2022/09/01 19:08:18;;;;;;;0.75;0.50;;;;;;;;;;5072181;28;20143;-64
2022/09/01 19:10:51;;;;;;;0.80;0.80;;;;;;;;;;5092382;28;20083;-66
2022/09/01 19:13:40;;;;;;;1.38;0.55;;;;;;;;;;5089848;28;20039;-66
2022/09/01 19:16:36;;;;;;;5.55;0.90;;;;;;;;;;5088687;28;20124;-66
2022/09/01 19:19:02;;;;;;;0.93;0.80;;;;;;;;;;5070575;28;20059;-66
2022/09/01 19:21:31;;;;;;;1.38;0.55;;;;;;;;;;5084050;28;20389;-66
2022/09/01 19:24:16;;;;;;;0.93;0.70;;;;;;;;;;5079232;28;20052;-67
2022/09/01 19:26:54;;;;;;;1.88;0.80;;;;;;;;;;5087594;28;20076;-66
2022/09/01 19:29:23;;;;;;;0.57;0.50;;;;;;;;;;5079743;28;20593;-64
2022/09/01 19:31:55;;;;;;;0.93;0.60;;;;;;;;;;5082617;28;20047;-65
2022/09/01 19:34:24;;;;;;;3.42;0.85;;;;;;;;;;5077184;28;20047;-65
2022/09/01 19:36:54;;;;;;;1.55;0.70;;;;;;;;;;5077002;28;20123;-66
2022/09/01 19:39:25;;;;;;;1.20;0.63;;;;;;;;;;5073370;28;20824;-64
2022/09/01 19:41:51;;;;;;;1.73;0.70;;;;;;;;;;5075588;28;20033;-66
2022/09/01 19:44:23;;;;;;;0.75;0.60;;;;;;;;;;5072953;28;20085;-66
2022/09/01 19:46:56;;;;;;;1.13;0.45;;;;;;;;;;5071758;28;20573;-66
2022/09/01 19:49:40;;;;;;;1.58;0.50;;;;;;;;;;5069380;28;20048;-64
2022/09/01 19:52:19;;;;;;;1.17;0.75;;;;;;;;;;5072592;28;20160;-66
2022/09/01 19:54:53;;;;;;;1.77;0.63;;;;;;;;;;5073468;28;20044;-65
2022/09/01 19:57:27;;;;;;;0.50;0.50;;;;;;;;;;5083579;28;20354;-66
2022/09/01 19:59:57;;;;;;;0.95;0.70;;;;;;;;;;5078168;28;20051;-65
2022/09/01 20:02:23;;;;;;;0.68;0.60;;;;;;;;;;5084264;28;20055;-64
2022/09/01 20:04:52;;;;;;;1.05;0.60;;;;;;;;;;5085777;28;20066;-66
2022/09/01 20:07:21;;;;;;;0.93;0.60;;;;;;;;;;5085580;28;20066;-66
2022/09/01 20:10:08;;;;;;;1.42;0.75;;;;;;;;;;5086042;28;20097;-66
2022/09/01 20:12:38;;;;;;;;;;;;;;;;;;5050170;28;20044;-66
2022/09/01 20:15:08;;;;;;;0.85;0.60;;;;;;;;;;5084429;28;20372;-66
2022/09/01 20:17:40;;;;;;;0.73;0.63;;;;;;;;;;5078281;28;20040;-66
2022/09/01 20:20:08;;;;;;;0.93;0.70;;;;;;;;;;5087480;28;20155;-65
2022/09/01 20:22:41;;;;;;;0.95;0.70;;;;;;;;;;5084639;28;20124;-67
2022/09/01 20:25:13;;;;;;;0.95;0.73;;;;;;;;;;5084464;28;20052;-68
2022/09/01 20:28:08;;;;;;;0.65;0.65;;;;;;;;;;5084199;28;20520;-66
2022/09/01 20:30:38;;;;;;;4.53;0.70;;;;;;;;;;5069749;28;20099;-66
2022/09/01 20:33:08;;;;;;;1.55;0.70;;;;;;;;;;5077530;28;20040;-66
2022/09/01 20:35:44;;;;;;;5.50;0.88;;;;;;;;;;5079749;28;20377;-66
2022/09/01 20:39:58;;;;;;;0.68;0.55;;;;;;;;;;5076852;28;20040;-65
2022/09/01 20:40:56;;;;;;;1.20;0.67;;;;;;;;;;5076943;28;20550;-66
2022/09/01 20:43:25;;;;;;;0.98;0.60;;;;;;;;;;5083123;28;20685;-66
2022/09/01 20:45:52;;;;;;;2.08;0.70;;;;;;;;;;5077613;28;20048;-65
2022/09/01 20:48:22;;;;;;;2.22;0.70;;;;;;;;;;5076252;28;20044;-66
2022/09/01 20:50:48;;;;;;;0.65;0.65;;;;;;;;;;5077737;28;20047;-66
2022/09/01 20:53:37;;;;;;;1.75;0.70;;;;;;;;;;5074146;28;20066;-65
2022/09/01 20:56:13;;;;;;;2.38;1.00;;;;;;;;;;5072087;28;20051;-66
2022/09/01 20:58:42;;;;;;;1.25;0.65;;;;;;;;;;5076141;28;20060;-66
2022/09/01 21:01:09;;;;;;;0.90;0.55;;;;;;;;;;5074898;28;20043;-66
2022/09/01 21:03:44;;;;;;;3.10;1.30;;;;;;;;;;5074958;28;20044;-65
2022/09/01 21:06:15;;;;;;;2.10;1.13;;;;;;;;;;5080483;28;20489;-66
2022/09/01 21:10:52;;;;;;;1.77;0.97;;;22.30;61.70;;;;;;5080838;27;20399;-80
2022/09/01 21:13:41;;;;;;;1.98;0.93;;;22.10;64.40;;;;;;5076780;28;20359;-86
2022/09/01 21:16:07;;;;;;;3.28;1.10;;;;;;;;;;5059247;28;20055;-80
2022/09/01 21:31:20;;;;;;;1.42;1.10;;;;;;;;;;5144121;27;20104;-90
2022/09/01 21:33:46;;;;;;;1.02;0.90;;;;;;;;;;5132848;27;20039;-91
2022/09/01 21:36:12;;;;;;;3.20;1.10;;;;;;;;;;5091200;27;20321;-91
2022/09/01 21:38:38;;;;;;;;;;;;;;;;;;5136508;27;20351;-92
2022/09/01 21:41:05;;;;;;;1.63;0.88;;;;;;;;;;5129826;27;19920;-92
2022/09/01 21:43:33;;;;;;;2.72;1.10;;;;;;;;;;5135545;27;20605;-87
2022/09/01 21:45:59;;;;;;;1.63;1.10;;;;;;;;;;5123933;27;20079;-90
2022/09/01 21:48:25;;;;;;;1.23;0.90;;;;;;;;;;5090374;28;20044;-91
2022/09/01 21:50:52;;;;;;;2.63;0.90;;;;;;;;;;5093488;28;20548;-92
2022/09/01 21:53:18;;;;;;;;;;;;;;;;;;5089343;28;20558;-92
2022/09/01 21:55:44;;;;;;;1.40;0.90;;;;;;;;;;5134204;27;19924;-92
2022/09/01 21:58:10;;;;;;;1.77;1.33;;;;;;;;;;5112909;28;20127;-91
2022/09/01 22:00:42;;;;;;;1.67;1.20;;;;;;;;;;5090687;28;20159;-91
2022/09/01 22:03:09;;;;;;;0.77;0.77;;;;;;;;;;5111446;28;20052;-91
2022/09/01 22:05:39;;;;;;;1.15;1.00;;;;;;;;;;5088872;28;20088;-89
2022/09/01 22:08:06;;;;;;;3.38;1.10;;;;;;;;;;5107522;28;20051;-91
2022/09/01 22:10:32;;;;;;;1.55;1.00;;;;;;;;;;5090134;28;20075;-88
2022/09/01 22:12:59;;;;;;;3.53;1.05;;;;;;;;;;5090983;28;20072;-92
2022/09/01 22:15:25;;;;;;;1.30;0.80;;;;;;;;;;5093545;28;20063;-88
2022/09/01 22:17:52;;;;;;;0.98;0.82;;;;;;;;;;5087932;28;20055;-92
2022/09/01 22:20:21;;;;;;;0.90;0.90;;;;;;;;;;5090640;28;20598;-92
2022/09/01 22:22:47;;;;;;;1.00;0.90;;;;;;;;;;5087758;28;20048;-91
2022/09/01 22:25:18;;;;;;;2.28;0.90;;;;;;;;;;5090629;28;20121;-90
2022/09/01 22:27:44;;;;;;;3.05;1.20;;;;;;;;;;5122085;28;20496;-91
2022/09/01 22:30:10;;;;;;;;;;;;;;;;;;5125600;28;20063;-89
2022/09/01 22:32:36;;;;;;;1.60;1.05;;;;;;;;;;5087244;28;20420;-90
2022/09/01 22:35:03;;;;;;;1.98;0.90;;;;;;;;;;5116923;28;20120;-90
2022/09/01 22:37:29;;;;;;;2.75;0.90;;;;;;;;;;5093258;28;20048;-87
2022/09/01 22:39:55;;;;;;;1.85;1.00;;;;;;;;;;5118817;28;20040;-90
2022/09/01 22:42:21;;;;;;;;;;;;;;;;;;5077316;28;20083;-90
2022/09/01 22:44:47;;;;;;;1.08;0.98;;;;;;;;;;5117437;27;19968;-89
2022/09/01 22:47:13;;;;;;;2.17;1.20;;;;;;;;;;5074632;28;20408;-90
2022/09/01 22:49:39;;;;;;;;;;;;;;;;;;5109004;28;20577;-90
2022/09/01 22:52:06;;;;;;;1.17;0.80;;;;;;;;;;5074986;28;20044;-88
2022/09/01 22:54:32;;;;;;;;;;;;;;;;;;5078987;28;20097;-91
2022/09/01 22:56:58;;;;;;;1.10;0.80;;;;;;;;;;5074455;28;19926;-91
2022/09/01 22:59:24;;;;;;;1.40;0.93;;;;;;;;;;5104264;28;20040;-91
2022/09/01 23:01:50;;;;;;;;;;;;;;;;;;5112139;27;20086;-90
2022/09/01 23:04:17;;;;;;;2.03;1.05;;;;;;;;;;5074329;28;19979;-90
2022/09/01 23:06:46;;;;;;;2.08;0.85;;;;;;;;;;5074499;28;20047;-89
2022/09/01 23:09:12;;;;;;;0.85;0.68;;;;;;;;;;5093802;28;20048;-91
2022/09/01 23:11:38;;;;;;;2.22;0.75;;;;;;;;;;5087359;28;20153;-86
2022/09/01 23:14:04;;;;;;;;;;;;;;;;;;5118787;27;20050;-91
2022/09/01 23:16:32;;;;;;;3.58;0.80;;;;;;;;;;5125967;27;20291;-90
2022/09/01 23:18:58;;;;;;;2.72;1.08;;;;;;;;;;5112108;27;20040;-91
2022/09/01 23:21:29;;;;;;;3.78;0.98;;;;;;;;;;5076727;28;20094;-89
2022/09/01 23:23:56;;;;;;;2.35;0.75;;;;;;;;;;5071557;28;20083;-91
2022/09/01 23:26:22;;;;;;;5.28;0.77;;;;;;;;;;5075688;28;20048;-90
2022/09/01 23:28:49;;;;;;;2.65;0.80;;;;;;;;;;5075811;28;20040;-90
2022/09/01 23:31:20;;;;;;;1.50;0.82;;;;;;;;;;5080950;28;20055;-90
2022/09/01 23:33:47;;;;;;;1.45;0.80;;;;;;;;;;5077791;28;20059;-90
2022/09/01 23:36:14;;;;;;;1.15;0.77;;;;;;;;;;5087817;28;20044;-89
2022/09/01 23:38:41;;;;;;;1.17;0.90;;;;;;;;;;5075565;28;20056;-87
2022/09/01 23:41:08;;;;;;;0.80;0.80;;;;;;;;;;5091613;28;20052;-89
2022/09/01 23:43:35;;;;;;;0.73;0.60;;;;;;;;;;5086134;28;20091;-91
2022/09/01 23:46:01;;;;;;;1.17;0.90;;;;;;;;;;5070578;28;20299;-92
2022/09/01 23:48:28;;;;;;;1.63;0.80;;;;;;;;;;5075940;28;20063;-91
2022/09/01 23:50:58;;;;;;;1.30;0.80;;;;;;;;;;5075722;28;20049;-89
2022/09/01 23:53:26;;;;;;;0.75;0.75;;;;;;;;;;5088821;28;20039;-90
2022/09/01 23:55:54;;;;;;;0.75;0.75;;;;;;;;;;5113378;27;20039;-88
2022/09/01 23:58:23;;;;;;;0.93;0.75;;;;;;;;;;5077449;28;20048;-91
